sensor_id;sensor_type;location;lat;lon;timestamp;P1;durP1;ratioP1;P2;durP2;ratioP2
25984;SDS011;66753;53.848;10.658;2023-09-07T00:09:22;5.47;;;4.83;;
25984;SDS011;66753;53.848;10.658;2023-09-07T00:24:23;9.20;;;5.10;;
25984;SDS011;66753;53.848;10.658;2023-09-07T00:39:25;5.97;;;4.30;;
25984;SDS011;66753;53.848;10.658;2023-09-07T00:54:27;8.27;;;5.57;;
25984;SDS011;66753;53.848;10.658;2023-09-07T01:09:30;7.57;;;5.40;;
25984;SDS011;66753;53.848;10.658;2023-09-07T01:24:35;7.53;;;4.83;;
25984;SDS011;66753;53.848;10.658;2023-09-07T01:39:38;6.77;;;4.43;;
25984;SDS011;66753;53.848;10.658;2023-09-07T01:54:40;6.17;;;4.57;;
25984;SDS011;66753;53.848;10.658;2023-09-07T02:09:42;7.27;;;4.60;;
25984;SDS011;66753;53.848;10.658;2023-09-07T02:24:43;7.03;;;4.77;;
25984;SDS011;66753;53.848;10.658;2023-09-07T02:39:44;5.87;;;4.53;;
25984;SDS011;66753;53.848;10.658;2023-09-07T02:54:46;6.47;;;4.73;;
25984;SDS011;66753;53.848;10.658;2023-09-07T03:09:49;7.13;;;5.20;;
25984;SDS011;66753;53.848;10.658;2023-09-07T03:24:54;6.00;;;4.53;;
25984;SDS011;66753;53.848;10.658;2023-09-07T03:39:56;5.53;;;4.20;;
25984;SDS011;66753;53.848;10.658;2023-09-07T03:54:57;6.53;;;4.37;;
25984;SDS011;66753;53.848;10.658;2023-09-07T04:10:00;9.27;;;5.00;;
25984;SDS011;66753;53.848;10.658;2023-09-07T04:25:02;6.20;;;4.30;;
25984;SDS011;66753;53.848;10.658;2023-09-07T04:40:05;6.63;;;4.40;;
25984;SDS011;66753;53.848;10.658;2023-09-07T04:55:08;9.50;;;4.73;;
25984;SDS011;66753;53.848;10.658;2023-09-07T05:10:10;7.23;;;5.37;;
25984;SDS011;66753;53.848;10.658;2023-09-07T05:25:13;7.17;;;5.10;;
25984;SDS011;66753;53.848;10.658;2023-09-07T05:40:14;8.43;;;6.40;;
25984;SDS011;66753;53.848;10.658;2023-09-07T05:55:16;7.57;;;4.80;;
25984;SDS011;66753;53.848;10.658;2023-09-07T06:10:18;8.50;;;5.03;;
25984;SDS011;66753;53.848;10.658;2023-09-07T06:25:19;8.20;;;4.80;;
25984;SDS011;66753;53.848;10.658;2023-09-07T06:40:23;8.20;;;4.80;;
25984;SDS011;66753;53.848;10.658;2023-09-07T06:55:26;6.57;;;4.93;;
25984;SDS011;66753;53.848;10.658;2023-09-07T07:10:27;7.37;;;4.60;;
25984;SDS011;66753;53.848;10.658;2023-09-07T07:25:30;7.73;;;4.87;;
25984;SDS011;66753;53.848;10.658;2023-09-07T07:40:34;6.00;;;4.27;;
25984;SDS011;66753;53.848;10.658;2023-09-07T07:55:36;7.10;;;4.50;;
25984;SDS011;66753;53.848;10.658;2023-09-07T08:10:41;5.53;;;4.27;;
25984;SDS011;66753;53.848;10.658;2023-09-07T08:25:42;5.73;;;5.10;;
25984;SDS011;66753;53.848;10.658;2023-09-07T08:40:46;7.10;;;5.03;;
25984;SDS011;66753;53.848;10.658;2023-09-07T08:55:48;5.83;;;4.60;;
25984;SDS011;66753;53.848;10.658;2023-09-07T09:11:01;6.67;;;4.50;;
25984;SDS011;66753;53.848;10.658;2023-09-07T09:26:04;6.73;;;4.50;;
25984;SDS011;66753;53.848;10.658;2023-09-07T09:41:05;6.60;;;5.00;;
25984;SDS011;66753;53.848;10.658;2023-09-07T09:56:07;5.67;;;4.50;;
25984;SDS011;66753;53.848;10.658;2023-09-07T10:11:08;5.77;;;4.73;;
25984;SDS011;66753;53.848;10.658;2023-09-07T10:26:16;6.20;;;5.47;;
25984;SDS011;66753;53.848;10.658;2023-09-07T10:41:22;4.57;;;4.17;;
25984;SDS011;66753;53.848;10.658;2023-09-07T10:56:24;4.80;;;3.90;;
25984;SDS011;66753;53.848;10.658;2023-09-07T11:11:27;5.43;;;3.50;;
25984;SDS011;66753;53.848;10.658;2023-09-07T11:26:28;3.97;;;2.97;;
25984;SDS011;66753;53.848;10.658;2023-09-07T11:41:29;4.17;;;3.43;;
25984;SDS011;66753;53.848;10.658;2023-09-07T11:56:31;5.33;;;3.07;;
25984;SDS011;66753;53.848;10.658;2023-09-07T12:11:32;4.57;;;3.43;;
25984;SDS011;66753;53.848;10.658;2023-09-07T12:26:34;6.30;;;3.20;;
25984;SDS011;66753;53.848;10.658;2023-09-07T12:41:35;5.20;;;4.03;;
25984;SDS011;66753;53.848;10.658;2023-09-07T12:56:37;5.67;;;3.93;;
25984;SDS011;66753;53.848;10.658;2023-09-07T13:11:38;46.17;;;8.10;;
25984;SDS011;66753;53.848;10.658;2023-09-07T13:26:40;8.60;;;4.50;;
25984;SDS011;66753;53.848;10.658;2023-09-07T13:41:41;7.00;;;4.83;;
25984;SDS011;66753;53.848;10.658;2023-09-07T13:56:43;7.83;;;6.07;;
25984;SDS011;66753;53.848;10.658;2023-09-07T14:11:46;9.70;;;7.40;;
25984;SDS011;66753;53.848;10.658;2023-09-07T14:26:48;9.97;;;7.50;;
25984;SDS011;66753;53.848;10.658;2023-09-07T14:41:50;9.30;;;8.03;;
25984;SDS011;66753;53.848;10.658;2023-09-07T14:56:55;9.80;;;7.77;;
25984;SDS011;66753;53.848;10.658;2023-09-07T15:11:57;9.23;;;6.73;;
25984;SDS011;66753;53.848;10.658;2023-09-07T15:27:10;10.77;;;7.53;;
25984;SDS011;66753;53.848;10.658;2023-09-07T15:42:12;10.07;;;7.97;;
25984;SDS011;66753;53.848;10.658;2023-09-07T15:57:13;9.60;;;8.10;;
25984;SDS011;66753;53.848;10.658;2023-09-07T16:12:16;10.50;;;8.90;;
25984;SDS011;66753;53.848;10.658;2023-09-07T16:27:18;8.67;;;7.67;;
25984;SDS011;66753;53.848;10.658;2023-09-07T16:42:21;9.70;;;7.97;;
25984;SDS011;66753;53.848;10.658;2023-09-07T16:57:23;8.93;;;7.40;;
25984;SDS011;66753;53.848;10.658;2023-09-07T17:12:25;14.10;;;7.70;;
25984;SDS011;66753;53.848;10.658;2023-09-07T17:27:27;10.63;;;7.63;;
25984;SDS011;66753;53.848;10.658;2023-09-07T17:42:28;10.13;;;7.63;;
25984;SDS011;66753;53.848;10.658;2023-09-07T17:57:31;11.07;;;7.80;;
25984;SDS011;66753;53.848;10.658;2023-09-07T18:12:32;10.97;;;7.80;;
25984;SDS011;66753;53.848;10.658;2023-09-07T18:27:34;9.53;;;7.30;;
25984;SDS011;66753;53.848;10.658;2023-09-07T18:42:36;9.83;;;7.10;;
25984;SDS011;66753;53.848;10.658;2023-09-07T18:57:37;11.60;;;7.60;;
25984;SDS011;66753;53.848;10.658;2023-09-07T19:12:39;10.60;;;7.43;;
25984;SDS011;66753;53.848;10.658;2023-09-07T19:40:54;9.77;;;7.30;;
25984;SDS011;66753;53.848;10.658;2023-09-07T19:56:03;11.50;;;7.60;;
25984;SDS011;66753;53.848;10.658;2023-09-07T20:11:06;12.13;;;8.07;;
25984;SDS011;66753;53.848;10.658;2023-09-07T20:26:08;10.77;;;7.67;;
25984;SDS011;66753;53.848;10.658;2023-09-07T20:41:11;10.10;;;7.50;;
25984;SDS011;66753;53.848;10.658;2023-09-07T20:56:14;13.90;;;7.67;;
25984;SDS011;66753;53.848;10.658;2023-09-07T21:11:16;11.00;;;7.67;;
25984;SDS011;66753;53.848;10.658;2023-09-07T21:26:17;9.03;;;6.37;;
25984;SDS011;66753;53.848;10.658;2023-09-07T21:41:19;10.00;;;7.07;;
25984;SDS011;66753;53.848;10.658;2023-09-07T21:56:22;9.10;;;6.50;;
25984;SDS011;66753;53.848;10.658;2023-09-07T22:11:23;8.93;;;5.90;;
25984;SDS011;66753;53.848;10.658;2023-09-07T22:26:25;11.43;;;6.17;;
25984;SDS011;66753;53.848;10.658;2023-09-07T22:41:26;7.00;;;5.40;;
25984;SDS011;66753;53.848;10.658;2023-09-07T22:56:28;10.37;;;6.13;;
25984;SDS011;66753;53.848;10.658;2023-09-07T23:11:29;7.67;;;5.87;;
25984;SDS011;66753;53.848;10.658;2023-09-07T23:26:31;7.20;;;5.70;;
25984;SDS011;66753;53.848;10.658;2023-09-07T23:41:33;6.73;;;5.37;;
25984;SDS011;66753;53.848;10.658;2023-09-07T23:56:34;8.37;;;5.83;;
